Time;durP1;ratioP1;P1;durP2;ratioP2;P2;SDS_P1;SDS_P2;PMS_P1;PMS_P2;Temp;Humidity;BMP_temperature;BMP_pressure;BME280_temperature;BME280_humidity;BME280_pressure;Samples;Min_cycle;Max_cycle;Signal;HPM_P1;HPM_P2
2022/06/26 00:01:21;;;;;;;8.05;3.97;;;17.50;99.90;;;;;;4696994;30;20053;-86
2022/06/26 00:04:24;;;;;;;5.50;4.07;;;17.50;99.90;;;;;;4689423;30;20145;-87
2022/06/26 00:07:07;;;;;;;5.10;3.28;;;17.50;99.90;;;;;;4626561;31;20070;-87
2022/06/26 00:09:44;;;;;;;5.05;3.58;;;17.50;99.90;;;;;;4604625;31;20194;-87
2022/06/26 00:12:12;;;;;;;5.03;4.05;;;17.40;99.90;;;;;;4602393;31;20067;-87
2022/06/26 00:14:46;;;;;;;3.83;3.08;;;17.40;99.90;;;;;;4601173;31;20070;-86
2022/06/26 00:17:18;;;;;;;4.10;3.00;;;17.40;99.90;;;;;;4596828;31;20066;-87
2022/06/26 00:19:46;;;;;;;3.58;2.67;;;17.40;99.90;;;;;;4605203;31;20133;-87
2022/06/26 00:25:09;;;;;;;5.32;3.03;;;17.40;99.90;;;;;;4604659;31;20112;-86
2022/06/26 00:27:34;;;;;;;4.35;2.67;;;17.40;99.90;;;;;;4619046;31;20455;-88
2022/06/26 00:30:00;;;;;;;4.38;2.63;;;17.40;99.90;;;;;;4627053;30;20071;-86
2022/06/26 00:32:29;;;;;;;4.38;2.90;;;17.40;99.90;;;;;;4605766;31;20088;-86
2022/06/26 00:34:55;;;;;;;3.97;2.67;;;17.40;99.90;;;;;;4605330;31;20204;-87
2022/06/26 00:37:26;;;;;;;3.17;2.65;;;17.40;99.90;;;;;;4607873;31;20124;-87
2022/06/26 00:39:57;;;;;;;3.15;2.33;;;17.40;99.90;;;;;;4606091;31;20063;-87
2022/06/26 00:42:34;;;;;;;2.47;2.05;;;17.50;99.90;;;;;;4634022;30;20416;-87
2022/06/26 00:44:59;;;;;;;3.35;2.38;;;17.40;99.90;;;;;;4672753;30;20058;-87
2022/06/26 00:47:31;;;;;;;3.20;2.30;;;17.30;99.90;;;;;;4666365;30;20108;-86
2022/06/26 00:50:00;;;;;;;4.43;2.78;;;17.30;99.90;;;;;;4666511;30;20054;-87
2022/06/26 00:52:38;;;;;;;3.30;2.58;;;17.30;99.90;;;;;;4673714;30;20093;-87
2022/06/26 00:55:07;;;;;;;4.15;2.78;;;17.20;99.90;;;;;;4681589;30;20110;-87
2022/06/26 00:57:38;;;;;;;4.95;3.03;;;17.30;99.90;;;;;;4651988;30;20145;-87
2022/06/26 01:00:12;;;;;;;4.18;2.65;;;17.50;99.90;;;;;;4681547;30;20061;-87
2022/06/26 01:02:43;;;;;;;3.03;1.90;;;17.20;99.90;;;;;;4696917;30;20068;-86
2022/06/26 01:05:10;;;;;;;6.97;3.38;;;17.20;99.90;;;;;;4697877;30;20179;-87
2022/06/26 01:07:42;;;;;;;4.93;3.00;;;17.20;99.90;;;;;;4700133;30;20053;-87
2022/06/26 01:10:09;;;;;;;3.88;2.97;;;17.10;99.90;;;;;;4699979;30;20088;-87
2022/06/26 01:12:39;;;;;;;3.28;2.50;;;17.10;99.90;;;;;;4700399;30;20053;-86
2022/06/26 01:15:08;;;;;;;3.58;2.75;;;17.10;99.90;;;;;;4691830;30;20590;-86
2022/06/26 01:17:40;;;;;;;4.45;2.95;;;17.10;99.90;;;;;;4700468;30;20057;-87
2022/06/26 01:20:09;;;;;;;3.70;2.58;;;17.10;99.90;;;;;;4699863;30;20065;-87
2022/06/26 01:22:38;;;;;;;3.85;3.15;;;17.10;99.90;;;;;;4699985;30;20061;-87
2022/06/26 01:25:09;;;;;;;7.20;4.43;;;17.10;99.90;;;;;;4685293;30;20057;-87
2022/06/26 01:27:50;;;;;;;11.23;8.35;;;17.10;99.90;;;;;;4694704;30;20057;-86
2022/06/26 01:30:16;;;;;;;11.40;6.72;;;17.20;99.90;;;;;;4699547;30;20057;-87
2022/06/26 01:33:05;;;;;;;8.73;6.05;;;17.20;99.90;;;;;;4700336;30;20065;-87
2022/06/26 01:35:56;;;;;;;8.10;5.35;;;17.30;99.90;;;;;;4690633;30;20053;-88
2022/06/26 01:38:36;;;;;;;7.07;3.83;;;17.30;99.90;;;;;;4715481;30;20572;-86
2022/06/26 01:41:40;;;;;;;;;;;;;;;;;;;;;
2022/06/26 01:44:09;;;;;;;6.30;2.97;;;17.50;99.90;;;;;;4712541;30;20045;-87
2022/06/26 01:46:53;;;;;;;6.32;3.03;;;17.50;99.90;;;;;;4691632;30;20136;-87
2022/06/26 01:49:31;;;;;;;7.07;5.28;;;17.30;99.90;;;;;;4692326;30;20152;-88
2022/06/26 01:52:03;;;;;;;5.60;3.22;;;17.70;99.90;;;;;;4700053;30;20116;-88
2022/06/26 01:54:29;;;;;;;3.50;2.33;;;17.60;99.90;;;;;;4715273;30;20133;-87
2022/06/26 01:57:09;;;;;;;7.30;5.00;;;17.70;99.90;;;;;;4693369;30;20060;-88
2022/06/26 01:59:44;;;;;;;4.25;3.10;;;17.70;99.90;;;;;;4704430;30;20060;-88
2022/06/26 02:02:13;;;;;;;2.67;2.03;;;17.70;99.90;;;;;;4715633;25;20061;-88
2022/06/26 02:04:48;;;;;;;8.30;5.60;;;17.80;99.90;;;;;;4719388;30;20067;-88
2022/06/26 02:07:14;;;;;;;4.78;3.20;;;17.70;99.90;;;;;;4689263;30;20060;-88
2022/06/26 02:15:17;;;;;;;3.85;2.80;;;17.80;99.90;;;;;;4720628;30;20068;-87
2022/06/26 02:17:45;;;;;;;5.80;1.98;;;18.10;99.90;;;;;;4713586;30;20080;-87
2022/06/26 02:20:12;;;;;;;5.57;3.92;;;17.70;99.90;;;;;;4720003;30;20126;-88
2022/06/26 02:22:40;;;;;;;4.18;2.40;;;17.70;99.90;;;;;;4719093;30;20138;-88
2022/06/26 02:25:16;;;;;;;3.47;2.45;;;17.70;99.90;;;;;;4708456;30;20056;-88
2022/06/26 02:27:57;;;;;;;3.22;2.08;;;17.70;99.90;;;;;;4712687;30;20123;-88
2022/06/26 02:30:42;;;;;;;2.38;1.70;;;17.70;99.90;;;;;;4735618;30;20064;-86
2022/06/26 02:33:22;;;;;;;3.67;1.38;;;17.70;99.90;;;;;;4705074;30;20067;-88
2022/06/26 02:35:55;;;;;;;3.28;1.77;;;17.70;99.90;;;;;;4719387;30;20064;-88
2022/06/26 02:38:26;;;;;;;3.00;1.45;;;17.70;99.90;;;;;;4726386;30;20064;-87
2022/06/26 02:40:53;;;;;;;3.22;1.70;;;17.70;99.90;;;;;;4732824;30;20056;-88
2022/06/26 02:43:23;;;;;;;5.10;1.80;;;17.70;99.90;;;;;;4718945;30;20056;-86
2022/06/26 02:45:55;;;;;;;3.58;1.80;;;17.70;99.90;;;;;;4735105;30;20056;-87
2022/06/26 02:48:45;;;;;;;;;;;;;;;;;;;;;
2022/06/26 03:24:55;;;;;;;;;;;;;;;;;;;;;
2022/06/26 03:27:29;;;;;;;1.70;1.02;;;17.30;99.90;;;;;;4561061;31;20065;-88
2022/06/26 03:30:13;;;;;;;2.90;1.02;;;17.30;99.90;;;;;;4580851;31;20064;-88
2022/06/26 03:33:05;;;;;;;1.65;0.80;;;17.30;99.90;;;;;;4564055;31;20071;-88
2022/06/26 03:36:32;;;;;;;1.67;0.80;;;17.30;99.90;;;;;;4565724;31;20052;-88
2022/06/26 03:39:08;;;;;;;1.25;0.82;;;17.30;99.90;;;;;;4548450;31;20508;-87
2022/06/26 03:42:00;;;;;;;1.10;0.80;;;17.30;99.90;;;;;;4557655;31;20567;-86
2022/06/26 03:45:02;;;;;;;;;;;;;;;;;;;;;
2022/06/26 03:47:30;;;;;;;1.92;0.77;;;17.30;99.90;;;;;;4558232;31;20056;-88
2022/06/26 03:50:26;;;;;;;3.58;1.15;;;17.30;99.90;;;;;;4559391;31;20061;-88
2022/06/26 03:53:05;;;;;;;;;;;;;;;;;;;;;
2022/06/26 03:55:53;;;;;;;1.45;0.90;;;17.30;99.90;;;;;;4527622;31;20552;-87
2022/06/26 03:58:21;;;;;;;1.05;0.68;;;17.20;99.90;;;;;;4535073;31;20406;-88
2022/06/26 04:00:52;;;;;;;1.58;0.98;;;17.30;99.90;;;;;;4608079;31;20059;-89
2022/06/26 04:03:26;;;;;;;1.15;0.70;;;17.30;99.90;;;;;;4639670;30;20062;-89
2022/06/26 04:05:52;;;;;;;1.55;0.70;;;17.30;99.90;;;;;;4701429;30;20096;-89
2022/06/26 04:08:19;;;;;;;0.85;0.57;;;17.30;99.90;;;;;;4700399;30;20092;-89
2022/06/26 04:11:00;;;;;;;2.08;0.98;;;17.20;99.90;;;;;;4684638;30;20065;-88
2022/06/26 04:16:31;;;;;;;1.08;0.82;;;17.40;99.90;;;;;;4631171;30;20542;-88
2022/06/26 04:19:51;;;;;;;0.80;0.60;;;17.30;99.90;;;;;;4642911;30;20114;-87
2022/06/26 04:30:46;;;;;;;;;;;;;;;;;;;;;
2022/06/26 04:33:51;;;;;;;;;;;;;;;;;;;;;
2022/06/26 04:36:38;;;;;;;1.30;0.63;;;17.30;99.90;;;;;;4716818;30;20123;-90
2022/06/26 04:39:19;;;;;;;1.52;1.00;;;17.40;99.90;;;;;;4716381;30;20053;-88
2022/06/26 04:42:00;;;;;;;2.17;1.00;;;17.40;99.90;;;;;;4715253;30;20060;-88
2022/06/26 04:44:34;;;;;;;2.17;0.60;;;17.40;99.90;;;;;;4697249;30;20065;-88
2022/06/26 04:47:06;;;;;;;0.60;0.50;;;17.50;99.90;;;;;;4710216;30;20059;-87
2022/06/26 04:49:47;;;;;;;2.53;0.70;;;17.50;99.90;;;;;;4723128;30;20135;-87
2022/06/26 04:52:45;;;;;;;1.30;0.82;;;17.50;99.90;;;;;;4731423;30;20564;-90
2022/06/26 04:55:21;;;;;;;0.88;0.60;;;17.50;99.90;;;;;;4732523;30;20061;-88
2022/06/26 04:58:24;;;;;;;1.13;0.68;;;17.50;99.90;;;;;;4713589;30;20123;-89
2022/06/26 05:01:08;;;;;;;1.20;0.60;;;17.40;99.90;;;;;;4701757;30;20048;-88
2022/06/26 05:03:43;;;;;;;1.55;0.77;;;17.60;99.90;;;;;;4703681;30;20056;-88
2022/06/26 05:06:24;;;;;;;1.38;0.80;;;17.60;99.90;;;;;;4712875;30;20057;-88
2022/06/26 05:08:59;;;;;;;1.53;0.90;;;17.60;99.90;;;;;;4713257;30;20535;-88
2022/06/26 05:11:25;;;;;;;1.88;0.73;;;17.80;99.90;;;;;;4715991;30;20377;-88
2022/06/26 05:13:53;;;;;;;1.85;0.80;;;17.70;99.90;;;;;;4718906;30;20052;-90
2022/06/26 05:16:25;;;;;;;3.10;0.70;;;17.70;99.90;;;;;;4732917;30;20411;-88
2022/06/26 05:19:01;;;;;;;0.68;0.60;;;17.90;99.90;;;;;;4714156;30;20060;-89
2022/06/26 05:21:27;;;;;;;1.88;0.82;;;17.80;99.90;;;;;;4720057;30;20093;-87
2022/06/26 05:23:59;;;;;;;2.10;0.88;;;17.70;99.90;;;;;;4704909;30;20088;-88
2022/06/26 05:26:36;;;;;;;1.45;0.70;;;17.70;99.90;;;;;;4720234;30;20063;-88
2022/06/26 05:29:42;;;;;;;1.55;0.80;;;17.80;99.90;;;;;;4705834;30;20087;-89
2022/06/26 05:32:08;;;;;;;1.05;0.70;;;17.80;99.90;;;;;;4672420;30;20050;-89
2022/06/26 05:34:34;;;;;;;0.70;0.50;;;17.90;99.90;;;;;;4668450;30;20121;-89
2022/06/26 05:37:05;;;;;;;1.65;0.60;;;17.90;99.90;;;;;;4662620;30;20074;-88
2022/06/26 05:39:41;;;;;;;1.27;0.80;;;18.00;99.90;;;;;;4674214;30;20070;-89
2022/06/26 05:42:07;;;;;;;1.10;0.80;;;18.00;99.90;;;;;;4653434;30;20078;-88
2022/06/26 05:44:35;;;;;;;2.58;1.00;;;18.10;99.90;;;;;;4654329;30;20066;-89
2022/06/26 05:47:09;;;;;;;2.03;0.75;;;18.10;99.90;;;;;;4655147;30;20438;-89
2022/06/26 05:49:35;;;;;;;1.92;1.13;;;18.10;99.90;;;;;;4669208;30;20058;-87
2022/06/26 05:52:01;;;;;;;2.42;1.10;;;18.10;99.90;;;;;;4668186;30;20073;-89
2022/06/26 05:54:29;;;;;;;3.97;1.10;;;18.10;99.90;;;;;;4669251;30;20066;-87
2022/06/26 05:57:16;;;;;;;2.17;1.52;;;18.10;99.90;;;;;;4670998;30;20064;-88
2022/06/26 05:59:44;;;;;;;2.10;1.17;;;18.10;99.90;;;;;;4655608;30;20146;-89
2022/06/26 06:02:10;;;;;;;1.63;1.17;;;18.20;99.90;;;;;;4662677;30;20049;-88
2022/06/26 06:04:45;;;;;;;2.33;1.40;;;18.10;99.90;;;;;;4714173;30;20079;-88
2022/06/26 06:07:11;;;;;;;2.70;1.80;;;18.20;99.90;;;;;;4734176;30;20407;-86
2022/06/26 06:09:40;;;;;;;4.30;1.95;;;18.30;99.90;;;;;;4714234;30;20071;-86
2022/06/26 06:12:06;;;;;;;4.40;2.80;;;18.30;99.90;;;;;;4735391;30;20045;-87
2022/06/26 06:14:32;;;;;;;5.47;2.70;;;18.40;99.90;;;;;;4734819;30;20199;-87
2022/06/26 06:17:35;;;;;;;4.50;3.40;;;18.40;99.90;;;;;;4717659;30;20517;-87
2022/06/26 06:19:46;;;;;;;3.42;2.38;;;18.40;99.90;;;;;;4727775;30;20146;-86
2022/06/26 06:22:12;;;;;;;3.75;2.83;;;18.30;99.90;;;;;;4715419;30;20139;-87
2022/06/26 06:24:49;;;;;;;3.50;2.13;;;18.30;99.90;;;;;;4746791;24;20073;-88
2022/06/26 06:27:15;;;;;;;6.53;3.75;;;18.30;99.90;;;;;;4707050;30;20574;-87
2022/06/26 06:29:41;;;;;;;3.10;2.40;;;18.30;99.90;;;;;;4686372;30;20057;-85
2022/06/26 06:32:07;;;;;;;4.43;3.20;;;18.40;99.90;;;;;;4714887;30;20538;-85
2022/06/26 06:34:33;;;;;;;4.53;2.38;;;18.50;99.90;;;;;;4717442;30;20503;-85
2022/06/26 06:36:58;;;;;;;2.30;1.63;;;18.60;99.90;;;;;;4701494;30;20049;-85
2022/06/26 06:39:24;;;;;;;4.68;2.88;;;18.70;99.90;;;;;;4708182;30;20065;-85
2022/06/26 06:41:50;;;;;;;4.75;3.40;;;18.80;99.90;;;;;;4717253;30;20123;-86
2022/06/26 06:44:16;;;;;;;5.40;3.22;;;18.80;99.90;;;;;;4700788;30;20056;-86
2022/06/26 06:46:41;;;;;;;3.20;2.35;;;18.90;99.90;;;;;;4715203;30;20053;-86
2022/06/26 06:49:07;;;;;;;2.90;1.98;;;18.90;99.90;;;;;;4711911;30;20053;-85
2022/06/26 06:51:33;;;;;;;4.32;3.00;;;19.00;99.90;;;;;;4702187;30;20099;-86
2022/06/26 06:53:59;;;;;;;3.88;2.22;;;19.10;99.90;;;;;;4701241;30;20107;-87
2022/06/26 06:56:25;;;;;;;5.53;3.75;;;19.20;99.90;;;;;;4701520;30;20061;-86
2022/06/26 06:58:51;;;;;;;6.78;4.30;;;19.30;99.90;;;;;;4709952;30;20124;-88
2022/06/26 07:01:17;;;;;;;5.53;3.90;;;19.40;99.90;;;;;;4702041;30;20060;-87
2022/06/26 07:04:12;;;;;;;4.53;3.42;;;19.40;99.90;;;;;;4702069;30;20518;-87
2022/06/26 07:06:38;;;;;;;4.30;2.83;;;19.40;99.90;;;;;;4709698;30;20053;-88
2022/06/26 07:09:05;;;;;;;6.03;2.95;;;19.40;99.90;;;;;;4707388;30;20401;-87
2022/06/26 07:11:39;;;;;;;4.50;3.45;;;19.40;99.90;;;;;;4706463;30;20504;-88
2022/06/26 07:14:05;;;;;;;3.40;3.00;;;19.50;99.90;;;;;;4711608;30;20523;-86
2022/06/26 07:16:31;;;;;;;5.75;3.30;;;19.50;99.90;;;;;;4701263;30;20079;-86
2022/06/26 07:18:57;;;;;;;6.47;4.20;;;19.50;99.90;;;;;;4711413;30;20057;-87
2022/06/26 07:21:32;;;;;;;6.82;4.57;;;19.50;99.90;;;;;;4712451;30;20061;-87
2022/06/26 07:24:21;;;;;;;7.85;4.13;;;19.50;99.90;;;;;;4701028;30;20057;-88
2022/06/26 07:26:46;;;;;;;5.55;3.63;;;19.60;99.90;;;;;;4717080;30;20498;-89
2022/06/26 07:29:12;;;;;;;3.70;2.97;;;19.70;99.90;;;;;;4709094;30;20066;-87
2022/06/26 07:31:40;;;;;;;5.32;3.55;;;19.80;99.90;;;;;;4716374;30;20128;-88
2022/06/26 07:34:12;;;;;;;5.72;3.03;;;19.90;99.90;;;;;;4699867;30;20068;-88
2022/06/26 07:36:41;;;;;;;5.88;4.60;;;19.90;99.90;;;;;;4695797;30;20053;-87
2022/06/26 07:39:08;;;;;;;4.97;3.83;;;19.90;99.90;;;;;;4692942;30;20073;-88
2022/06/26 07:41:44;;;;;;;7.28;4.88;;;20.00;99.90;;;;;;4716197;30;20057;-88
2022/06/26 07:44:18;;;;;;;4.35;3.80;;;20.10;99.90;;;;;;4700131;30;20075;-87
2022/06/26 07:46:47;;;;;;;10.18;6.35;;;20.10;99.90;;;;;;4701468;30;20067;-89
2022/06/26 07:49:25;;;;;;;;;;;;;;;;;;;;;
2022/06/26 07:51:54;;;;;;;10.15;6.90;;;20.20;99.90;;;;;;4701138;30;20065;-88
2022/06/26 07:54:20;;;;;;;11.02;6.65;;;20.20;99.90;;;;;;4710032;30;20056;-89
2022/06/26 07:56:48;;;;;;;10.05;7.53;;;20.30;99.90;;;;;;4697379;30;20560;-88
2022/06/26 07:59:34;;;;;;;9.98;5.97;;;20.20;99.90;;;;;;4698399;30;20045;-88
2022/06/26 08:02:03;;;;;;;10.00;6.65;;;20.30;99.90;;;;;;4707556;30;20430;-88
2022/06/26 08:04:29;;;;;;;7.35;5.38;;;20.30;99.90;;;;;;4715788;30;20057;-87
2022/06/26 08:06:55;;;;;;;11.10;8.15;;;20.40;99.90;;;;;;4712244;30;20405;-87
2022/06/26 08:09:33;;;;;;;;;;;;;;;;;;;;;
2022/06/26 08:12:04;;;;;;;9.93;7.22;;;20.80;99.90;;;;;;4696348;30;20061;-88
2022/06/26 08:15:25;;;;;;;8.65;6.20;;;21.00;99.90;;;;;;4716306;30;20056;-88
2022/06/26 08:18:25;;;;;;;9.50;5.43;;;21.40;99.90;;;;;;4689632;30;20053;-88
2022/06/26 08:29:08;;;;;;;4.15;2.63;;;21.20;99.90;;;;;;4683862;30;20072;-88
2022/06/26 08:31:37;;;;;;;6.68;3.95;;;21.10;99.90;;;;;;4648953;30;20146;-88
2022/06/26 08:34:13;;;;;;;5.53;3.30;;;21.20;99.90;;;;;;4729032;24;20143;-88
2022/06/26 08:36:39;;;;;;;5.60;3.10;;;21.00;99.90;;;;;;4711063;30;20067;-87
2022/06/26 08:42:44;;;;;;;4.65;2.95;;;21.20;99.90;;;;;;5169472;24;20031;-90
2022/06/26 08:45:12;;;;;;;6.57;3.85;;;21.60;99.90;;;;;;4669299;30;20053;-90
2022/06/26 08:48:39;;;;;;;;;;;;;;;;;;;;;
2022/06/26 08:54:34;;;;;;;5.78;3.63;;;22.30;99.90;;;;;;4630579;30;20074;-90
2022/06/26 08:57:00;;;;;;;5.43;2.95;;;22.50;99.90;;;;;;4632965;30;20067;-87
2022/06/26 08:59:43;;;;;;;5.38;2.75;;;22.70;99.90;;;;;;4715376;24;20064;-87
2022/06/26 09:02:09;;;;;;;2.60;1.80;;;22.90;99.90;;;;;;4701908;30;20596;-88
2022/06/26 09:04:46;;;;;;;4.47;2.22;;;23.20;99.90;;;;;;4717744;30;20065;-87
2022/06/26 09:14:32;;;;;;;3.75;1.52;;;23.00;99.90;;;;;;4714910;30;20136;-89
2022/06/26 09:16:59;;;;;;;1.65;1.35;;;22.70;99.90;;;;;;4695839;30;20052;-89
2022/06/26 09:19:36;;;;;;;2.75;1.20;;;22.60;99.90;;;;;;4714617;30;20132;-88
2022/06/26 09:22:06;;;;;;;3.55;1.45;;;22.40;99.90;;;;;;4714264;30;20052;-88
2022/06/26 09:24:36;;;;;;;4.70;1.55;;;22.30;99.90;;;;;;4735417;30;20136;-88
2022/06/26 09:27:13;;;;;;;2.55;1.10;;;22.20;99.90;;;;;;4730646;30;20049;-89
2022/06/26 09:29:48;;;;;;;3.03;0.95;;;22.20;99.90;;;;;;4699707;30;20060;-87
2022/06/26 09:32:15;;;;;;;2.28;1.10;;;22.20;99.90;;;;;;4720965;30;20503;-88
2022/06/26 09:34:52;;;;;;;1.40;0.80;;;22.40;99.90;;;;;;4716860;30;20098;-86
2022/06/26 09:37:19;;;;;;;2.80;1.15;;;22.60;99.90;;;;;;4720348;30;20068;-86
2022/06/26 09:39:46;;;;;;;2.65;1.08;;;22.90;99.90;;;;;;4718566;30;20174;-88
2022/06/26 09:42:24;;;;;;;0.93;0.60;;;23.20;99.90;;;;;;4736319;30;20107;-88
2022/06/26 09:44:52;;;;;;;2.85;1.10;;;23.50;99.90;;;;;;4714120;30;20147;-87
2022/06/26 09:47:30;;;;;;;1.63;0.77;;;23.50;99.90;;;;;;4720324;30;20558;-87
2022/06/26 09:50:00;;;;;;;3.90;0.80;;;23.70;99.90;;;;;;4709196;30;20088;-90
2022/06/26 09:52:28;;;;;;;1.00;0.70;;;23.90;99.90;;;;;;4735635;30;20100;-89
2022/06/26 09:54:55;;;;;;;1.38;0.70;;;24.00;99.90;;;;;;4720097;30;20107;-90
2022/06/26 09:57:21;;;;;;;2.10;0.80;;;24.20;99.90;;;;;;4735444;30;20056;-89
2022/06/26 09:59:47;;;;;;;2.95;1.00;;;24.20;99.90;;;;;;4734673;30;20155;-87
2022/06/26 10:07:56;;;;;;;3.58;0.90;;;24.70;99.90;;;;;;4718044;30;20499;-87
2022/06/26 10:11:04;;;;;;;2.20;0.80;;;24.60;99.90;;;;;;4715974;30;20064;-89
2022/06/26 10:13:37;;;;;;;2.50;0.80;;;24.70;99.90;;;;;;4716341;30;20077;-89
2022/06/26 10:16:14;;;;;;;1.55;0.80;;;24.80;99.90;;;;;;4695920;30;20135;-87
2022/06/26 10:18:57;;;;;;;1.05;0.60;;;24.90;99.90;;;;;;4707933;30;20114;-86
2022/06/26 10:21:23;;;;;;;0.90;0.60;;;25.10;99.90;;;;;;4702097;30;20065;-85
2022/06/26 10:23:48;;;;;;;2.05;0.60;;;25.10;99.90;;;;;;4687151;30;20119;-84
2022/06/26 10:26:22;;;;;;;1.38;0.60;;;25.20;99.90;;;;;;4701905;30;20052;-86
2022/06/26 10:29:09;;;;;;;0.73;0.30;;;25.30;99.90;;;;;;4702664;30;20064;-85
2022/06/26 10:31:49;;;;;;;0.70;0.40;;;25.50;99.90;;;;;;4722239;30;20068;-85
2022/06/26 10:34:22;;;;;;;0.75;0.50;;;25.80;99.90;;;;;;4717012;30;20057;-86
2022/06/26 10:37:03;;;;;;;0.75;0.50;;;26.00;99.90;;;;;;4717243;30;20053;-87
2022/06/26 10:39:49;;;;;;;1.35;0.50;;;26.30;99.90;;;;;;4720093;30;20067;-86
2022/06/26 10:45:20;;;;;;;;;;;26.00;99.90;;;;;;4722112;30;20057;-86
2022/06/26 10:47:48;;;;;;;1.98;0.50;;;25.70;99.90;;;;;;4728402;30;19966;-86
2022/06/26 10:50:23;;;;;;;1.63;0.75;;;25.50;99.90;;;;;;4713328;30;20108;-87
2022/06/26 10:52:49;;;;;;;5.47;0.68;;;25.50;99.90;;;;;;4728024;30;20100;-88
2022/06/26 10:55:15;;;;;;;1.10;0.40;;;25.50;99.90;;;;;;4734006;30;20522;-88
2022/06/26 10:57:40;;;;;;;1.17;0.40;;;25.50;99.30;;;;;;4723852;30;20510;-87
2022/06/26 11:00:11;;;;;;;2.47;0.50;;;25.50;99.90;;;;;;4734149;30;20099;-86
2022/06/26 11:02:40;;;;;;;1.42;0.50;;;25.50;99.90;;;;;;4735154;30;20049;-85
2022/06/26 11:05:07;;;;;;;0.50;0.40;;;25.50;99.90;;;;;;4733749;30;20056;-87
2022/06/26 11:07:44;;;;;;;2.33;0.57;;;25.50;99.60;;;;;;4722106;30;20084;-86
2022/06/26 11:10:21;;;;;;;1.33;0.40;;;25.50;99.90;;;;;;4716091;30;20470;-86
2022/06/26 11:12:51;;;;;;;1.10;0.55;;;25.50;99.90;;;;;;4724925;30;20448;-86
2022/06/26 11:15:32;;;;;;;0.60;0.40;;;25.40;98.50;;;;;;4718648;30;20068;-86
2022/06/26 11:18:03;;;;;;;0.77;0.40;;;25.50;99.90;;;;;;4703052;30;20072;-89
2022/06/26 11:20:49;;;;;;;1.67;0.40;;;25.40;99.20;;;;;;4722516;30;20049;-91
2022/06/26 11:23:31;;;;;;;0.90;0.40;;;25.50;98.90;;;;;;4734326;30;20076;-85
2022/06/26 11:26:07;;;;;;;0.82;0.55;;;25.40;99.90;;;;;;4717652;30;20052;-86
2022/06/26 11:28:39;;;;;;;0.57;0.40;;;25.40;97.90;;;;;;4711280;30;20495;-87
2022/06/26 11:31:07;;;;;;;0.70;0.50;;;25.40;99.90;;;;;;4718122;30;20061;-88
2022/06/26 11:33:35;;;;;;;0.95;0.40;;;25.30;99.00;;;;;;4709985;30;20567;-88
2022/06/26 11:36:07;;;;;;;0.50;0.38;;;25.60;99.90;;;;;;4710973;30;20065;-89
2022/06/26 11:38:34;;;;;;;2.10;0.40;;;25.70;99.90;;;;;;4717997;30;20389;-86
2022/06/26 11:41:01;;;;;;;0.68;0.30;;;25.80;99.30;;;;;;4717656;30;20499;-87
2022/06/26 11:43:28;;;;;;;1.52;0.52;;;25.80;98.70;;;;;;4702090;30;20061;-87
2022/06/26 11:45:57;;;;;;;0.95;0.50;;;25.80;96.50;;;;;;4717331;30;20063;-87
2022/06/26 11:48:23;;;;;;;1.23;0.50;;;25.60;99.00;;;;;;4717753;30;20056;-86
2022/06/26 11:50:54;;;;;;;0.93;0.47;;;25.50;99.10;;;;;;4689271;30;20428;-86
2022/06/26 11:53:23;;;;;;;2.65;0.50;;;25.50;99.10;;;;;;4731496;30;20056;-86
2022/06/26 11:55:54;;;;;;;1.33;0.50;;;25.50;98.70;;;;;;4705366;30;20067;-86
2022/06/26 11:58:26;;;;;;;1.60;0.50;;;25.50;99.60;;;;;;4733774;30;20049;-86
2022/06/26 12:01:11;;;;;;;1.05;0.43;;;25.50;97.50;;;;;;4712541;30;20158;-86
2022/06/26 12:03:43;;;;;;;;;;;25.70;97.90;;;;;;4713683;30;20114;-86
2022/06/26 12:06:09;;;;;;;1.75;0.40;;;25.70;99.50;;;;;;4733372;30;19926;-86
2022/06/26 12:08:35;;;;;;;0.65;0.35;;;25.80;99.20;;;;;;4733414;30;20099;-87
2022/06/26 12:11:01;;;;;;;1.27;0.50;;;25.70;96.90;;;;;;4729024;30;20128;-87
2022/06/26 12:13:32;;;;;;;1.15;0.50;;;25.70;99.90;;;;;;4717785;30;20063;-87
2022/06/26 12:16:02;;;;;;;0.73;0.40;;;25.80;99.00;;;;;;4711624;30;20053;-86
2022/06/26 12:18:28;;;;;;;0.50;0.40;;;25.80;99.10;;;;;;4711348;30;20500;-85
2022/06/26 12:20:54;;;;;;;1.92;0.60;;;25.70;98.30;;;;;;4713928;30;20068;-84
2022/06/26 12:23:31;;;;;;;1.58;0.60;;;25.70;96.60;;;;;;4717028;30;20052;-85
2022/06/26 12:26:05;;;;;;;0.65;0.40;;;25.70;96.50;;;;;;4698745;30;20545;-86
2022/06/26 12:28:31;;;;;;;2.67;0.43;;;25.90;97.90;;;;;;4713226;30;20060;-86
2022/06/26 12:30:59;;;;;;;0.75;0.35;;;25.90;94.70;;;;;;4716694;30;20408;-87
2022/06/26 12:33:25;;;;;;;1.75;0.40;;;25.90;96.20;;;;;;4710330;30;20136;-85
2022/06/26 12:35:52;;;;;;;1.40;0.47;;;26.10;96.60;;;;;;4717502;30;20148;-85
2022/06/26 12:38:25;;;;;;;1.00;0.35;;;26.20;97.00;;;;;;4716560;30;20074;-87
2022/06/26 12:40:51;;;;;;;1.58;0.52;;;26.40;96.00;;;;;;4711962;30;20060;-85
2022/06/26 12:43:18;;;;;;;1.15;0.50;;;26.40;96.00;;;;;;4726907;30;20060;-86
2022/06/26 12:45:44;;;;;;;1.58;0.65;;;26.50;96.60;;;;;;4733426;30;20100;-88
2022/06/26 12:48:10;;;;;;;1.13;0.50;;;26.50;95.80;;;;;;4724622;30;20103;-88
2022/06/26 12:50:36;;;;;;;1.33;0.50;;;26.40;94.70;;;;;;4733606;30;20063;-86
2022/06/26 12:53:02;;;;;;;1.42;0.45;;;26.40;95.40;;;;;;4730820;30;20063;-88
2022/06/26 12:55:28;;;;;;;0.63;0.40;;;26.30;95.20;;;;;;4723788;30;20418;-85
2022/06/26 12:57:53;;;;;;;2.13;0.32;;;26.30;95.00;;;;;;4717060;30;20140;-87
2022/06/26 13:00:19;;;;;;;1.08;0.47;;;26.20;96.20;;;;;;4712050;30;20065;-87
2022/06/26 13:03:03;;;;;;;2.13;0.40;;;26.10;93.90;;;;;;4713428;30;20071;-89
2022/06/26 13:05:29;;;;;;;2.40;0.55;;;26.00;97.50;;;;;;4703548;30;20064;-87
2022/06/26 13:07:54;;;;;;;1.92;0.57;;;26.10;94.80;;;;;;4713245;30;20056;-87
2022/06/26 13:10:20;;;;;;;1.85;0.40;;;26.10;96.40;;;;;;4716543;30;20499;-87
2022/06/26 13:12:46;;;;;;;1.10;0.40;;;25.90;96.80;;;;;;4727027;30;20049;-87
2022/06/26 13:15:12;;;;;;;0.80;0.43;;;25.90;96.50;;;;;;4718783;30;20065;-86
2022/06/26 13:17:37;;;;;;;1.05;0.40;;;25.80;94.80;;;;;;4705057;30;20072;-85
2022/06/26 13:20:04;;;;;;;1.42;0.50;;;25.90;96.40;;;;;;4710827;30;20109;-86
2022/06/26 13:22:30;;;;;;;1.40;0.30;;;25.60;95.80;;;;;;4712843;30;20056;-88
2022/06/26 13:24:55;;;;;;;1.13;0.50;;;25.50;97.50;;;;;;4715198;30;20060;-86
2022/06/26 13:27:21;;;;;;;4.68;0.90;;;25.40;95.40;;;;;;4708864;30;20076;-85
2022/06/26 13:29:47;;;;;;;1.17;0.47;;;25.30;96.00;;;;;;4729368;30;20360;-86
2022/06/26 13:32:12;;;;;;;0.93;0.43;;;25.20;96.90;;;;;;4716873;30;20204;-87
2022/06/26 13:34:38;;;;;;;2.85;0.70;;;25.30;97.30;;;;;;4713392;30;20061;-86
2022/06/26 13:37:04;;;;;;;1.88;0.60;;;25.20;95.30;;;;;;4728798;30;20057;-85
2022/06/26 13:39:31;;;;;;;0.95;0.40;;;25.20;97.70;;;;;;4719739;30;20064;-84
2022/06/26 13:41:57;;;;;;;0.75;0.40;;;25.20;97.10;;;;;;4722582;30;20407;-84
2022/06/26 13:44:22;;;;;;;1.55;0.50;;;25.10;97.10;;;;;;4723015;30;20053;-84
2022/06/26 13:46:49;;;;;;;3.38;0.63;;;25.00;97.20;;;;;;4725479;30;20134;-85
2022/06/26 13:49:15;;;;;;;2.25;0.50;;;25.00;97.40;;;;;;4711444;30;20219;-83
2022/06/26 13:51:41;;;;;;;0.90;0.40;;;24.90;98.00;;;;;;4709805;30;20139;-83
2022/06/26 13:54:06;;;;;;;1.63;0.50;;;24.80;97.50;;;;;;4735588;30;20060;-83
2022/06/26 13:56:32;;;;;;;0.82;0.38;;;24.70;95.90;;;;;;4730888;30;20068;-84
2022/06/26 13:58:58;;;;;;;1.33;0.50;;;24.70;97.50;;;;;;4723492;30;20088;-85
2022/06/26 14:01:25;;;;;;;1.70;0.52;;;24.70;97.20;;;;;;4735284;30;20150;-84
2022/06/26 14:03:52;;;;;;;1.02;0.40;;;24.70;96.10;;;;;;4736052;30;20060;-85
2022/06/26 14:06:18;;;;;;;1.15;0.50;;;24.60;97.40;;;;;;4735710;30;20147;-84
2022/06/26 14:08:44;;;;;;;1.77;0.50;;;24.60;97.40;;;;;;4736053;30;20545;-84
2022/06/26 14:11:11;;;;;;;1.52;0.40;;;24.40;97.40;;;;;;4712652;30;20083;-84
2022/06/26 14:13:37;;;;;;;2.20;0.52;;;24.20;96.90;;;;;;4707602;30;20056;-83
2022/06/26 14:16:03;;;;;;;3.75;0.82;;;24.00;97.30;;;;;;4732808;30;20048;-83
2022/06/26 14:18:29;;;;;;;0.98;0.40;;;23.90;98.70;;;;;;4735810;30;20053;-83
2022/06/26 14:20:55;;;;;;;1.20;0.40;;;23.80;98.90;;;;;;4735637;30;20415;-83
2022/06/26 14:26:05;;;;;;;1.77;0.50;;;23.60;99.90;;;;;;4723348;30;20071;-85
2022/06/26 14:28:33;;;;;;;1.08;0.70;;;23.50;99.90;;;;;;4733765;30;21660;-84
2022/06/26 14:31:01;;;;;;;1.77;0.60;;;23.50;99.90;;;;;;4726032;30;20057;-86
2022/06/26 14:33:27;;;;;;;0.77;0.40;;;23.40;99.90;;;;;;4733595;30;20061;-83
2022/06/26 14:35:53;;;;;;;1.10;0.60;;;23.40;99.90;;;;;;4733890;30;20146;-83
2022/06/26 14:38:18;;;;;;;1.20;0.60;;;23.30;99.90;;;;;;4735476;30;20135;-85
2022/06/26 14:40:45;;;;;;;1.75;0.60;;;23.30;99.90;;;;;;4735445;30;20064;-84
2022/06/26 14:43:11;;;;;;;1.67;0.57;;;23.20;99.90;;;;;;4733743;30;20139;-84
2022/06/26 14:45:37;;;;;;;1.88;0.50;;;23.20;99.90;;;;;;4720637;30;20582;-87
2022/06/26 14:48:04;;;;;;;1.92;0.50;;;23.30;99.90;;;;;;4699959;30;20073;-86
2022/06/26 14:50:30;;;;;;;1.10;0.50;;;23.20;99.90;;;;;;4725374;30;20135;-87
2022/06/26 14:52:55;;;;;;;2.00;0.60;;;23.40;99.90;;;;;;4720841;30;20125;-84